Challenge Cours la Province !

Les 8 Miles De L'Yerne - Haneffe (11.70 km)

vendredi 05 juillet 2019

Vous pouvez trouver Le classement original sur : www.otopservices.be  
CHALLENGE COURS LA PROVINCE
LES 8 MILES DE L'YERNE - HANEFFE
DISTANCE : 11.68 km
vendredi 05 juillet 2019
 
Place dos NOM Catégorie Pl/cat temps temps/km Vitesse
01:00:00              
1 130 ARNAUD RENARD SENIOR H 1 00:39:09 03:21 17.90
2 187 PATRICK PHILIPPE VÉTÉRAN 2 1 00:41:39 03:34 16.83
3 225 THIBAULT DE RIJOT SENIOR H 2 00:42:29 03:38 16.50
4 116 MICHEL MATHOT VETERAN 1 1 00:42:30 03:38 16.49
5 96 LAURENT HEMELAERS SENIOR H 3 00:42:55 03:40 16.33
6 76 ERWIN OTTAVIANI SENIOR H 4 00:44:13 03:47 15.85
7 3 THOMAS SULEAU SENIOR H 5 00:44:14 03:47 15.84
8 140 BERTRAND SCHMITZ SENIOR H 6 00:44:15 03:47 15.84
9 13 GILLES FLORKIN-DANS SENIOR H 7 00:44:17 03:47 15.83
10 1 DAVID FRISON VETERAN 1 2 00:44:46 03:50 15.65
11 65 DOMINIQUE MATHY VETERAN 3 1 00:45:11 03:52 15.51
12 114 MATTEO DATTOLI VETERAN 3 2 00:45:12 03:52 15.50
13 148 FABRICE GUERRINI SENIOR H 8 00:45:25 03:53 15.43
14 229 XAVIER HONNAY SENIOR H 9 00:46:04 03:57 15.21
15 186 IRENE TOSI SENIOR D 1 00:46:16 03:58 15.15
16 239 TONY VASAPOLLI SENIOR H 10 00:47:19 04:03 14.81
17 244 GIAN-CARLO SANGIOVANNI VETERAN 1 3 00:47:39 04:05 14.71
18 14 ANTONIO PIRARD SENIOR H 11 00:47:50 04:06 14.65
19 270 PIERRE-HENRI CORSWAREM SENIOR H 12 00:48:08 04:07 14.56
20 88 DAVID FOLDESI VETERAN 1 4 00:48:19 04:08 14.50
21 210 HUGUES LANGE SENIOR H 13 00:49:00 04:12 14.30
22 72 ALAIN MARCHAL VÉTÉRAN 2 2 00:49:25 04:14 14.18
23 252 NICOLAS MOSTINCKX SENIOR H 14 00:50:21 04:19 13.92
24 230 VITO DELL'AQUILA VÉTÉRAN 2 3 00:50:29 04:19 13.88
25 117 CHRISTOPHE LAMBOTTE VETERAN 1 5 00:50:34 04:20 13.86
26 188 VINCENT DEGUELDRE SENIOR H 15 00:51:25 04:24 13.63
27 54 ODIN LEMESTREZ SENIOR H 16 00:51:40 04:25 13.56
28 115 YVES PIRLET VETERAN 3 3 00:51:44 04:26 13.55
29 82 CARMELO PILLITTERI VÉTÉRAN 2 4 00:51:57 04:27 13.49
30 55 VINCENT DEBIOLLE VÉTÉRAN 2 5 00:52:09 04:28 13.44
31 228 JULIEN TONON SENIOR H 17 00:52:12 04:28 13.43
32 20 PATRICK CREMER VETERAN 3 4 00:52:27 04:29 13.36
33 109 THOMAS COP SENIOR H 18 00:52:22 04:29 13.38
34 260 JEREMIE BERTRAND SENIOR H 19 00:52:35 04:30 13.33
35 81 CORENTIN WASSON ESPOIR H 1 00:52:43 04:31 13.29
36 132 ALBERT VANDENSAVEL VETERAN 3 5 00:52:42 04:31 13.30
37 173 BENOIT DESSY SENIOR H 20 00:52:42 04:31 13.30
38 192 MARC TUTELAIRE VÉTÉRAN 2 6 00:52:55 04:32 13.24
39 224 LAURENT SEYNAEVE VETERAN 1 6 00:53:28 04:35 13.11
40 151 JONATHAN RAFFA SENIOR H 21 00:53:26 04:34 13.12
41 11 CELINE FEY SENIOR D 2 00:53:32 04:35 13.09
42 25 DIDIER DENDAL VÉTÉRAN 2 7 00:53:30 04:35 13.10
43 227 GUILLAUME KRIESCHER SENIOR H 22 00:53:23 04:34 13.13
44 154 JAMES BILIALI VETERAN 1 7 00:53:40 04:36 13.06
45 108 PASCAL COLLARD VÉTÉRAN 2 8 00:54:23 04:39 12.89
46 157 CHRISTIAN AKKERMANS VÉTÉRAN 2 9 00:54:30 04:40 12.86
47 163 SALVATORE TEDESCO VETERAN 1 8 00:54:30 04:40 12.86
48 49 RAMON BLANCO VÉTÉRAN 2 10 00:54:35 04:40 12.84
49 28 DOMINIQUE GILLET VÉTÉRAN 2 11 00:54:50 04:42 12.78
50 43 JULIAN VERA MORALES VETERAN 1 9 00:54:49 04:42 12.78
51 199 ARNAUD SPRIMONT SENIOR H 23 00:54:51 04:42 12.78
52 67 MATHIEU WANZOUL SENIOR H 24 00:55:49 04:47 12.56
53 23 PAUL RIHON VETERAN 3 6 00:56:06 04:48 12.49
54 182 PASCAL LEGROS VÉTÉRAN 2 12 00:56:07 04:48 12.49
55 179 RAPHAEL FOSSOUL SENIOR H 25 00:56:13 04:49 12.47
56 162 PATRICE GILARDINI VETERAN 1 10 00:56:24 04:50 12.43
57 146 PHILIPPE ETIENNE SENIOR H 26 00:56:26 04:50 12.42
58 144 SVEN HENRION SENIOR H 27 00:56:26 04:50 12.42
59 190 JAMES MOTTEN SENIOR H 28 00:56:27 04:50 12.41
60 122 KRIS GOVAERTS VETERAN 3 7 00:56:40 04:51 12.37
61 158 MANU HANSOUL SENIOR H 29 00:56:47 04:52 12.34
62 166 RAPHAEL NELIS SENIOR H 30 00:56:57 04:53 12.31
63 135 PATRICK BERTRAND VETERAN 1 11 00:57:04 04:53 12.28
64 38 PHILIPPE FEY VÉTÉRAN 2 13 00:57:11 04:54 12.26
65 232 ANTONY SOLITRO SENIOR H 31 00:57:24 04:55 12.21
66 161 GUY BOUGUIGNON VÉTÉRAN 2 14 00:57:27 04:55 12.20
67 6 ROLAND KUPPER SENIOR H 32 00:57:57 04:58 12.09
68 209 VALENTIN BRAHY SENIOR H 33 00:58:06 04:58 12.06
69 216 GILLES FRAITURE SENIOR H 34 00:58:06 04:58 12.06
70 240 JONATHAN HENRION SENIOR H 35 00:58:22 05:00 12.01
71 268 FRANCOIS BERNARD SENIOR H 36 00:58:29 05:00 11.98
72 19 FRANÇOIS LOREA VETERAN 3 8 00:58:32 05:01 11.97
73 215 EMMANUEL BERTRAND SENIOR H 37 00:58:29 05:00 11.98
74 263 LOIC MINET SENIOR H 38 00:58:39 05:01 11.95
75 222 CEDRIC DELLEUR VETERAN 1 12 00:58:56 05:03 11.89
76 183 PIERRE MATERNE VETERAN 3 9 00:59:01 05:03 11.87
77 208 FRANCOIS JACQUES SENIOR H 39 00:59:07 05:04 11.85
78 131 ALICIA HENDRICKS SENIOR D 3 00:59:28 05:05 11.78
79 73 CHILDERIC RENARD VETERAN 1 13 00:59:33 05:06 11.77
80 269 ULYSSE CARBONNEAU SENIOR H 40 00:59:19 05:05 11.81
81 242 SIMON GODIN SENIOR H 41 00:59:21 05:05 11.81
82 46 EDDY HOYLAERTS VETERAN 3 10 00:59:24 05:05 11.80
83 241 GERMAIN CAPRASSE SENIOR H 42 00:59:22 05:05 11.80
84 77 CHRISTOPHER PERIN SENIOR H 43 00:59:38 05:06 11.75
85 205 DENIS LEMAL VÉTÉRAN 2 15 00:59:51 05:07 11.71
86 251 ALEXANDRE MARCHAND VETERAN 1 14 00:59:53 05:08 11.70
87 159 ISMA KADIOGLU VETERAN 1 15 00:59:59 05:08 11.68
88 84 LUDOVIC DASSY SENIOR H 44 01:00:15 05:10 11.63
89 160 CHRISTOPHE DETRIXHE VETERAN 1 16 01:00:24 05:10 11.60
90 118 FRANCOIS ARGENTO VÉTÉRAN 2 16 01:00:15 05:10 11.63
91 92 LIESBETH VANNESTE SENIOR D 4 01:00:15 05:10 11.63
92 206 CLEMENT GANTOIS SENIOR H 45 01:00:26 05:10 11.60
93 30 CARINE MUNAUT AINÉE 2 1 01:00:37 05:11 11.56
94 111 ROGER VAN LANGEVELD VETERAN 3 11 01:00:37 05:11 11.56
95 176 GEOFFREY PIRARD SENIOR H 46 01:00:39 05:12 11.55
96 264 KALID LAMCHACHTI VETERAN 1 17 01:01:06 05:14 11.47
97 234 MICHEL SOLITRO VETERAN 3 12 01:01:30 05:16 11.39
98 83 VINCENT GONZALEZ VETERAN 1 18 01:01:23 05:15 11.42
99 185 BERNARD BORSU SENIOR H 47 01:01:34 05:16 11.38
100 191 RONNY VANHAY VETERAN 1 19 01:01:30 05:16 11.39
101 42 MICHEL BREVERS VETERAN 1 20 01:01:47 05:17 11.34
102 52 CHRISTIAN PARISSE VETERAN 1 21 01:01:52 05:18 11.33
103 27 PHILIPPE MASSET VETERAN 1 22 01:02:00 05:18 11.30
104 26 FLORIAN MASSET ESPOIR H 2 01:02:05 05:19 11.29
105 125 MAJA VAN ZAND AINÉE 3 1 01:02:17 05:20 11.25
106 121 DOMINIQUE OMAZIC AINÉE 1 1 01:02:18 05:20 11.25
107 34 MARIE-CÉLINE LOUWETTE AINÉE 2 2 01:02:23 05:20 11.23
108 35 JEAN-LOU LANGE VÉTÉRAN 2 17 01:02:23 05:20 11.23
109 33 MARC HAGELSTEENS VETERAN 1 23 01:02:50 05:23 11.15
110 61 MARIO SMOLDERS VETERAN 1 24 01:02:57 05:23 11.13
111 63 CHRISTOPHE CHRISTIAENS VETERAN 1 25 01:03:00 05:24 11.12
112 134 OLIVIER GAUTHIER VETERAN 1 26 01:02:57 05:23 11.13
113 113 MAUD BRASSART SENIOR D 5 01:03:06 05:24 11.11
114 99 BRUNO SIMON VETERAN 3 13 01:03:04 05:24 11.11
115 58 HUGO RADDOUX VETERAN 3 14 01:03:33 05:26 11.03
116 36 JULIEN MARIQUE SENIOR H 48 01:03:49 05:28 10.98
117 169 OLIVIER JADOT VETERAN 1 27 01:04:09 05:30 10.92
118 211 VALERIE DURELLO SENIOR D 6 01:04:19 05:30 10.90
119 256 RENE DUFOUR VETERAN 3 15 01:04:37 05:32 10.85
120 193 FLORIAN STIERNON SENIOR H 49 01:04:33 05:32 10.86
121 235 MANON LENGLER SENIOR D 7 01:04:32 05:32 10.86
122 219 JEAN-CHRISTOPHE GHENNE VETERAN 1 28 01:04:43 05:32 10.83
123 51 CHARLES BYA VÉTÉRAN 2 18 01:04:58 05:34 10.79
124 32 AUDREY BALDEWYNS SENIOR D 8 01:05:00 05:34 10.78
125 221 FREDERIC DOYEN VETERAN 1 29 01:05:05 05:34 10.77
126 4 FLORENCE SOMJA SENIOR D 9 01:05:02 05:34 10.78
127 238 GERARD DUPLOUY VETERAN 3 16 01:05:07 05:35 10.76
128 87 CAROLINE FEKETE AINÉE 2 3 01:05:56 05:39 10.63
129 104 OLIVIER LEROY VETERAN 1 30 01:05:47 05:38 10.65
130 247 CELIA DETHIER SENIOR D 10 01:05:59 05:39 10.62
131 246 NICOLAS MATAGNE SENIOR H 50 01:05:59 05:39 10.62
132 136 PHILIPPE CHARLIER VÉTÉRAN 2 19 01:05:57 05:39 10.63
133 120 RAPHAEL DUBOIS SENIOR H 51 01:06:11 05:40 10.59
134 48 JULIA BLANCO SENIOR D 11 01:06:14 05:40 10.58
135 127 JEAN-MARIE HAEKENS VÉTÉRAN 2 20 01:06:38 05:42 10.52
136 12 CLAUDE LARMINIER VETERAN 3 17 01:06:38 05:42 10.52
137 259 HENRI ROBERTI VÉTÉRAN 4 1 01:06:33 05:42 10.53
138 152 AUDREY DEVAHIVE AINÉE 1 2 01:06:33 05:42 10.53
139 248 ALAN WOOLF VÉTÉRAN 2 21 01:06:45 05:43 10.50
140 29 RAYMOND LENAERTS VETERAN 3 18 01:07:07 05:45 10.44
141 57 HUGUES BOTQUIN VÉTÉRAN 2 22 01:07:21 05:46 10.41
142 265 ADRIEN DRESSELAERS SENIOR H 52 01:07:13 05:45 10.43
143 78 JOSIANE STIERNON AINÉE 3 2 01:07:26 05:46 10.39
144 170 SOPHIE HUBIN SENIOR D 12 01:07:21 05:46 10.41
145 168 ISABELLE HALLEUX AINÉE 1 3 01:08:00 05:49 10.31
146 70 NATHALIE DATTOLI AINÉE 1 4 01:08:01 05:49 10.30
147 68 YASMINA EL ASRI AINÉE 1 5 01:08:01 05:49 10.30
148 141 ISABELLE THIRION SENIOR D 13 01:08:17 05:51 10.26
149 24 MURIELLE SERVAIS AINÉE 1 6 01:08:51 05:54 10.18
150 17 GERARD PIFFET VÉTÉRAN 2 23 01:09:00 05:54 10.16
151 129 PHILIPPE KRUSY VETERAN 1 31 01:09:42 05:58 10.05
152 171 SARAH WILKIN SENIOR D 14 01:09:59 06:00 10.01
153 204 ROSA SALVAGGIO SENIOR D 15 01:10:21 06:01 9.96
154 202 LAURENT KRZEWINSKI VETERAN 1 32 01:10:21 06:01 9.96
155 195 MARTINA ISABELLA AINÉE 1 7 01:10:38 06:03 9.92
156 106 MURIELLE SLOCK AINÉE 1 8 01:10:40 06:03 9.92
157 101 HERVE DEPREZ VÉTÉRAN 2 24 01:11:06 06:05 9.86
158 200 AXEL COMHAIRE VETERAN 1 33 01:11:10 06:06 9.85
159 250 KEEVIN CAMPA SENIOR H 53 01:11:30 06:07 9.80
160 80 ANDRÉ WASSON VÉTÉRAN 2 25 01:11:48 06:09 9.76
161 15 FABIAN BALDO VÉTÉRAN 2 26 01:12:08 06:11 9.72
162 261 GERALDINE BIDAINE SENIOR D 16 01:12:37 06:13 9.65
163 220 DOMINIQUE BERTRAND VÉTÉRAN 2 27 01:12:27 06:12 9.67
164 253 ERWAN MILCZAREK VETERAN 1 34 01:12:53 06:14 9.62
165 2 DAVID CRANINX SENIOR H 54 01:13:27 06:17 9.54
166 71 FREDDY GHILAIN VÉTÉRAN 2 28 01:13:47 06:19 9.50
167 147 ANNE HAMER SENIOR D 17 01:13:57 06:20 9.48
168 194 EMMANUELLE KEVELAER AINÉE 1 9 01:13:57 06:20 9.48
169 164 BASTIEN REMANS SENIOR H 55 01:14:16 06:22 9.44
170 237 FLORENCE GUILLIAMS SENIOR D 18 01:17:32 06:38 9.04
171 62 JEANNINE JOIRIS AINÉE 1 10 01:19:09 06:47 8.85
172 266 AURELIE HAUBRECHTS SENIOR D 19 01:20:00 06:51 8.76
173 217 DELPHINE DECOURTY SENIOR D 20 01:20:00 06:51 8.76
174 167 MARIE BADA SENIOR D 21 01:24:18 07:13 8.31
175 142 LUC CRUPI VÉTÉRAN 2 29 01:24:37 07:15 8.28
176 320 JEAN-MARC DELCHAMBRE SENIOR H 56 01:30:40 07:46 7.73
177 319 VIRGINIE EVRARD SENIOR D 22 01:30:41 07:46 7.73